sensor_id;sensor_type;location;lat;lon;timestamp;pressure;altitude;pressure_sealevel;temperature
14023;BMP180;7086;48.116;11.580;2023-02-15T00:01:05;96584.00;;;4.90
14023;BMP180;7086;48.116;11.580;2023-02-15T00:03:34;96622.00;;;4.90
14023;BMP180;7086;48.116;11.580;2023-02-15T00:06:03;96499.00;;;4.50
14023;BMP180;7086;48.116;11.580;2023-02-15T00:08:42;96432.00;;;4.40
14023;BMP180;7086;48.116;11.580;2023-02-15T00:11:13;96437.00;;;4.90
14023;BMP180;7086;48.116;11.580;2023-02-15T00:13:41;96520.00;;;4.90
14023;BMP180;7086;48.116;11.580;2023-02-15T00:16:43;96579.00;;;4.90
14023;BMP180;7086;48.116;11.580;2023-02-15T00:20:17;96592.00;;;4.90
14023;BMP180;7086;48.116;11.580;2023-02-15T00:27:32;96393.00;;;4.80
14023;BMP180;7086;48.116;11.580;2023-02-15T00:31:09;96594.00;;;4.70
14023;BMP180;7086;48.116;11.580;2023-02-15T00:34:16;96607.00;;;4.70
14023;BMP180;7086;48.116;11.580;2023-02-15T00:42:33;96455.00;;;4.60
14023;BMP180;7086;48.116;11.580;2023-02-15T00:44:36;96451.00;;;4.50
14023;BMP180;7086;48.116;11.580;2023-02-15T00:47:03;96487.00;;;4.70
14023;BMP180;7086;48.116;11.580;2023-02-15T00:49:31;96429.00;;;4.70
14023;BMP180;7086;48.116;11.580;2023-02-15T00:51:59;96559.00;;;4.70
14023;BMP180;7086;48.116;11.580;2023-02-15T00:54:27;96572.00;;;4.70
14023;BMP180;7086;48.116;11.580;2023-02-15T00:56:54;96573.00;;;4.70
14023;BMP180;7086;48.116;11.580;2023-02-15T00:59:23;96532.00;;;4.30
14023;BMP180;7086;48.116;11.580;2023-02-15T01:01:51;96564.00;;;4.70
14023;BMP180;7086;48.116;11.580;2023-02-15T01:04:18;96571.00;;;4.70
14023;BMP180;7086;48.116;11.580;2023-02-15T01:06:46;96476.00;;;4.60
14023;BMP180;7086;48.116;11.580;2023-02-15T01:09:13;96510.00;;;4.60
14023;BMP180;7086;48.116;11.580;2023-02-15T01:11:41;96529.00;;;4.50
14023;BMP180;7086;48.116;11.580;2023-02-15T01:14:08;96527.00;;;4.50
14023;BMP180;7086;48.116;11.580;2023-02-15T01:16:38;96422.00;;;4.50
14023;BMP180;7086;48.116;11.580;2023-02-15T01:19:06;96522.00;;;4.40
14023;BMP180;7086;48.116;11.580;2023-02-15T01:21:36;96452.00;;;4.40
14023;BMP180;7086;48.116;11.580;2023-02-15T01:24:03;96563.00;;;4.30
14023;BMP180;7086;48.116;11.580;2023-02-15T01:26:31;96448.00;;;4.30
14023;BMP180;7086;48.116;11.580;2023-02-15T01:28:59;96416.00;;;4.20
14023;BMP180;7086;48.116;11.580;2023-02-15T01:31:26;96534.00;;;4.20
14023;BMP180;7086;48.116;11.580;2023-02-15T01:33:58;96464.00;;;4.10
14023;BMP180;7086;48.116;11.580;2023-02-15T01:36:26;96447.00;;;4.00
14023;BMP180;7086;48.116;11.580;2023-02-15T01:38:55;96540.00;;;3.80
14023;BMP180;7086;48.116;11.580;2023-02-15T01:41:23;96442.00;;;4.10
14023;BMP180;7086;48.116;11.580;2023-02-15T01:43:55;96541.00;;;4.10
14023;BMP180;7086;48.116;11.580;2023-02-15T01:46:35;96551.00;;;4.10
14023;BMP180;7086;48.116;11.580;2023-02-15T01:49:21;96542.00;;;4.10
14023;BMP180;7086;48.116;11.580;2023-02-15T01:51:57;96531.00;;;3.90
14023;BMP180;7086;48.116;11.580;2023-02-15T01:54:32;96408.00;;;3.70
14023;BMP180;7086;48.116;11.580;2023-02-15T01:57:09;96520.00;;;4.10
14023;BMP180;7086;48.116;11.580;2023-02-15T01:59:47;96435.00;;;4.00
14023;BMP180;7086;48.116;11.580;2023-02-15T02:02:19;96326.00;;;3.80
14023;BMP180;7086;48.116;11.580;2023-02-15T02:04:55;96530.00;;;3.80
14023;BMP180;7086;48.116;11.580;2023-02-15T02:07:29;96489.00;;;3.80
14023;BMP180;7086;48.116;11.580;2023-02-15T02:10:03;96415.00;;;3.80
14023;BMP180;7086;48.116;11.580;2023-02-15T02:12:35;96434.00;;;3.80
14023;BMP180;7086;48.116;11.580;2023-02-15T02:15:06;96519.00;;;3.80
14023;BMP180;7086;48.116;11.580;2023-02-15T02:17:52;96486.00;;;3.80
14023;BMP180;7086;48.116;11.580;2023-02-15T02:20:58;96507.00;;;3.80
14023;BMP180;7086;48.116;11.580;2023-02-15T02:23:49;96494.00;;;3.50
14023;BMP180;7086;48.116;11.580;2023-02-15T02:27:05;96489.00;;;3.90
14023;BMP180;7086;48.116;11.580;2023-02-15T02:30:31;96435.00;;;3.90
14023;BMP180;7086;48.116;11.580;2023-02-15T02:34:01;96502.00;;;3.50
14023;BMP180;7086;48.116;11.580;2023-02-15T02:37:00;96493.00;;;3.70
14023;BMP180;7086;48.116;11.580;2023-02-15T02:39:50;96497.00;;;3.40
14023;BMP180;7086;48.116;11.580;2023-02-15T02:42:35;96516.00;;;3.60
14023;BMP180;7086;48.116;11.580;2023-02-15T02:45:18;96399.00;;;3.70
14023;BMP180;7086;48.116;11.580;2023-02-15T02:48:17;96373.00;;;3.70
14023;BMP180;7086;48.116;11.580;2023-02-15T02:51:28;96497.00;;;3.60
14023;BMP180;7086;48.116;11.580;2023-02-15T02:54:20;96491.00;;;3.80
14023;BMP180;7086;48.116;11.580;2023-02-15T02:56:51;96503.00;;;3.80
14023;BMP180;7086;48.116;11.580;2023-02-15T02:59:24;96344.00;;;3.50
14023;BMP180;7086;48.116;11.580;2023-02-15T03:01:57;96389.00;;;3.80
14023;BMP180;7086;48.116;11.580;2023-02-15T03:04:34;96510.00;;;3.70
14023;BMP180;7086;48.116;11.580;2023-02-15T03:07:09;96361.00;;;3.90
14023;BMP180;7086;48.116;11.580;2023-02-15T03:09:42;96474.00;;;3.80
14023;BMP180;7086;48.116;11.580;2023-02-15T03:12:12;96521.00;;;3.80
14023;BMP180;7086;48.116;11.580;2023-02-15T03:14:43;96525.00;;;3.70
14023;BMP180;7086;48.116;11.580;2023-02-15T03:17:13;96507.00;;;3.90
14023;BMP180;7086;48.116;11.580;2023-02-15T03:19:47;96307.00;;;3.90
14023;BMP180;7086;48.116;11.580;2023-02-15T03:22:27;96364.00;;;3.90
14023;BMP180;7086;48.116;11.580;2023-02-15T03:25:06;96458.00;;;3.30
14023;BMP180;7086;48.116;11.580;2023-02-15T03:27:47;96513.00;;;3.90
14023;BMP180;7086;48.116;11.580;2023-02-15T03:30:22;96458.00;;;4.00
14023;BMP180;7086;48.116;11.580;2023-02-15T03:32:56;96461.00;;;3.80
14023;BMP180;7086;48.116;11.580;2023-02-15T03:35:33;96344.00;;;4.00
14023;BMP180;7086;48.116;11.580;2023-02-15T03:38:11;96403.00;;;3.90
14023;BMP180;7086;48.116;11.580;2023-02-15T03:40:47;96474.00;;;4.00
14023;BMP180;7086;48.116;11.580;2023-02-15T03:43:51;96483.00;;;3.90
14023;BMP180;7086;48.116;11.580;2023-02-15T03:46:56;96478.00;;;3.40
14023;BMP180;7086;48.116;11.580;2023-02-15T03:49:54;96380.00;;;3.80
14023;BMP180;7086;48.116;11.580;2023-02-15T03:52:34;96496.00;;;3.80
14023;BMP180;7086;48.116;11.580;2023-02-15T03:55:05;96483.00;;;3.90
14023;BMP180;7086;48.116;11.580;2023-02-15T03:57:36;96525.00;;;3.90
14023;BMP180;7086;48.116;11.580;2023-02-15T04:00:25;96404.00;;;4.00
14023;BMP180;7086;48.116;11.580;2023-02-15T04:03:24;96303.00;;;4.00
14023;BMP180;7086;48.116;11.580;2023-02-15T04:06:01;96449.00;;;3.80
14023;BMP180;7086;48.116;11.580;2023-02-15T04:08:31;96477.00;;;4.00
14023;BMP180;7086;48.116;11.580;2023-02-15T04:11:17;96409.00;;;3.80
14023;BMP180;7086;48.116;11.580;2023-02-15T04:13:51;96502.00;;;3.90
14023;BMP180;7086;48.116;11.580;2023-02-15T04:16:24;96438.00;;;3.90
14023;BMP180;7086;48.116;11.580;2023-02-15T04:18:51;96321.00;;;4.00
14023;BMP180;7086;48.116;11.580;2023-02-15T04:21:36;96453.00;;;4.00
14023;BMP180;7086;48.116;11.580;2023-02-15T04:24:25;96494.00;;;3.90
14023;BMP180;7086;48.116;11.580;2023-02-15T04:27:23;96520.00;;;4.00
14023;BMP180;7086;48.116;11.580;2023-02-15T04:29:53;96484.00;;;4.10
14023;BMP180;7086;48.116;11.580;2023-02-15T04:32:23;96460.00;;;3.90
14023;BMP180;7086;48.116;11.580;2023-02-15T04:34:59;96447.00;;;4.10
14023;BMP180;7086;48.116;11.580;2023-02-15T04:37:31;96486.00;;;4.10
14023;BMP180;7086;48.116;11.580;2023-02-15T04:40:05;96352.00;;;4.00
14023;BMP180;7086;48.116;11.580;2023-02-15T04:42:43;96402.00;;;4.00
14023;BMP180;7086;48.116;11.580;2023-02-15T04:45:21;96491.00;;;4.20
14023;BMP180;7086;48.116;11.580;2023-02-15T04:47:49;96483.00;;;4.20
14023;BMP180;7086;48.116;11.580;2023-02-15T04:50:25;96480.00;;;3.90
14023;BMP180;7086;48.116;11.580;2023-02-15T04:52:55;96438.00;;;4.20
14023;BMP180;7086;48.116;11.580;2023-02-15T04:55:25;96471.00;;;4.20
14023;BMP180;7086;48.116;11.580;2023-02-15T04:58:09;96497.00;;;3.70
14023;BMP180;7086;48.116;11.580;2023-02-15T05:00:44;96532.00;;;4.20
14023;BMP180;7086;48.116;11.580;2023-02-15T05:03:21;96461.00;;;4.20
14023;BMP180;7086;48.116;11.580;2023-02-15T05:06:00;96506.00;;;3.70
14023;BMP180;7086;48.116;11.580;2023-02-15T05:08:32;96469.00;;;4.10
14023;BMP180;7086;48.116;11.580;2023-02-15T05:11:05;96383.00;;;4.20
14023;BMP180;7086;48.116;11.580;2023-02-15T05:13:53;96516.00;;;4.00
14023;BMP180;7086;48.116;11.580;2023-02-15T05:16:27;96461.00;;;4.10
14023;BMP180;7086;48.116;11.580;2023-02-15T05:25:09;96500.00;;;4.10
14023;BMP180;7086;48.116;11.580;2023-02-15T05:27:55;96426.00;;;4.00
14023;BMP180;7086;48.116;11.580;2023-02-15T05:30:42;96503.00;;;3.90
14023;BMP180;7086;48.116;11.580;2023-02-15T05:33:10;96474.00;;;4.00
14023;BMP180;7086;48.116;11.580;2023-02-15T05:35:38;96471.00;;;4.00
14023;BMP180;7086;48.116;11.580;2023-02-15T05:38:16;96521.00;;;4.00
14023;BMP180;7086;48.116;11.580;2023-02-15T05:41:25;96335.00;;;3.90
14023;BMP180;7086;48.116;11.580;2023-02-15T05:44:27;96465.00;;;3.90
14023;BMP180;7086;48.116;11.580;2023-02-15T23:08:04;96212.00;;;5.10
14023;BMP180;7086;48.116;11.580;2023-02-15T23:10:33;96285.00;;;4.60
14023;BMP180;7086;48.116;11.580;2023-02-15T23:13:20;96200.00;;;5.10
14023;BMP180;7086;48.116;11.580;2023-02-15T23:16:12;96230.00;;;5.10
14023;BMP180;7086;48.116;11.580;2023-02-15T23:18:55;96286.00;;;5.10
14023;BMP180;7086;48.116;11.580;2023-02-15T23:21:37;96285.00;;;5.10
